createdAt,value
2019-02-25T00:00:38.124Z,44.00
2019-02-25T00:02:24.036Z,44.00
2019-02-25T00:03:56.189Z,44.50
2019-02-25T00:05:28.303Z,44.70
2019-02-25T00:07:00.588Z,44.70
2019-02-25T00:08:32.896Z,44.50
2019-02-25T00:10:05.816Z,43.80
2019-02-25T00:11:38.117Z,44.00
2019-02-25T00:13:10.399Z,44.10
2019-02-25T00:14:42.727Z,44.00
2019-02-25T00:16:14.910Z,44.10
2019-02-25T00:17:47.209Z,44.30
2019-02-25T00:19:19.492Z,44.30
2019-02-25T00:20:51.662Z,44.40
2019-02-25T00:22:23.997Z,44.70
2019-02-25T00:23:56.121Z,45.10
2019-02-25T00:25:28.261Z,45.10
2019-02-25T00:27:00.617Z,45.20
2019-02-25T00:28:32.913Z,45.20
2019-02-25T00:30:05.330Z,44.80
2019-02-25T00:31:37.514Z,44.90
2019-02-25T00:33:09.836Z,45.00
2019-02-25T00:34:42.166Z,44.80
2019-02-25T00:36:14.537Z,44.60
2019-02-25T00:37:46.812Z,44.70
2019-02-25T00:39:19.061Z,44.70
2019-02-25T00:40:51.195Z,44.70
2019-02-25T00:42:23.478Z,44.90
2019-02-25T00:43:55.644Z,44.80
2019-02-25T00:45:27.948Z,45.00
2019-02-25T00:47:00.197Z,44.90
2019-02-25T00:48:32.481Z,45.30
2019-02-25T00:50:07.004Z,45.50
2019-02-25T00:51:39.114Z,45.80
2019-02-25T00:53:11.902Z,46.60
2019-02-25T00:54:44.202Z,45.70
2019-02-25T00:56:16.339Z,45.60
2019-02-25T00:57:48.600Z,45.60
2019-02-25T00:59:20.891Z,45.60
2019-02-25T01:00:53.188Z,45.90
2019-02-25T01:02:25.464Z,46.00
2019-02-25T01:03:57.710Z,46.00
2019-02-25T01:05:30.007Z,46.20
2019-02-25T01:07:02.520Z,46.20
2019-02-25T01:08:34.857Z,46.40
2019-02-25T01:10:07.848Z,46.50
2019-02-25T01:11:40.151Z,46.80
2019-02-25T01:13:12.429Z,46.90
2019-02-25T01:14:44.729Z,47.00
2019-02-25T01:16:16.832Z,47.10
2019-02-25T01:17:49.088Z,47.20
2019-02-25T01:19:21.313Z,48.00
2019-02-25T01:20:53.643Z,48.30
2019-02-25T01:22:25.814Z,48.90
2019-02-25T01:23:58.001Z,49.20
2019-02-25T01:25:30.289Z,49.30
2019-02-25T01:27:02.659Z,49.60
2019-02-25T01:28:34.976Z,49.70
2019-02-25T01:30:09.066Z,50.60
2019-02-25T01:31:41.372Z,50.00
2019-02-25T01:33:13.747Z,50.30
2019-02-25T01:34:46.008Z,50.20
2019-02-25T01:36:18.281Z,50.00
2019-02-25T01:37:50.549Z,49.30
2019-02-25T01:39:22.726Z,49.10
2019-02-25T01:40:54.978Z,49.00
2019-02-25T01:42:27.270Z,48.80
2019-02-25T01:43:59.720Z,48.60
2019-02-25T01:45:31.969Z,49.30
2019-02-25T01:47:04.214Z,48.60
2019-02-25T01:48:36.549Z,48.70
2019-02-25T01:50:09.100Z,48.70
2019-02-25T01:51:41.413Z,48.60
2019-02-25T01:53:13.650Z,48.60
2019-02-25T01:54:45.834Z,48.70
2019-02-25T01:56:18.096Z,48.60
2019-02-25T01:57:50.396Z,48.70
2019-02-25T01:59:22.544Z,48.50
2019-02-25T02:00:54.813Z,48.50
2019-02-25T02:02:26.933Z,48.70
2019-02-25T02:03:59.331Z,48.80
2019-02-25T02:05:31.629Z,48.80
2019-02-25T02:07:03.889Z,49.00
2019-02-25T02:08:36.187Z,49.00
2019-02-25T02:10:09.675Z,49.00
2019-02-25T02:11:41.807Z,49.10
2019-02-25T02:13:14.602Z,49.20
2019-02-25T02:14:47.095Z,49.30
2019-02-25T02:16:19.355Z,49.90
2019-02-25T02:17:51.655Z,49.20
2019-02-25T02:19:24.046Z,49.30
2019-02-25T02:20:56.305Z,49.40
2019-02-25T02:22:28.582Z,49.30
2019-02-25T02:24:00.972Z,49.40
2019-02-25T02:25:33.272Z,49.30
2019-02-25T02:27:05.614Z,49.40
2019-02-25T02:28:37.876Z,49.30
2019-02-25T02:30:14.796Z,49.30
2019-02-25T02:31:47.180Z,49.20
2019-02-25T02:33:19.513Z,49.70
2019-02-25T02:34:51.852Z,49.10
2019-02-25T02:36:24.164Z,49.10
2019-02-25T02:37:56.258Z,49.40
2019-02-25T02:39:28.593Z,49.70
2019-02-25T02:41:00.843Z,49.10
2019-02-25T02:42:33.289Z,48.90
2019-02-25T02:44:05.561Z,48.90
2019-02-25T02:45:50.273Z,49.00
2019-02-25T02:47:31.757Z,48.90
2019-02-25T02:49:04.269Z,48.80
2019-02-25T02:50:36.613Z,48.50
2019-02-25T02:52:08.774Z,48.40
2019-02-25T02:53:41.056Z,48.40
2019-02-25T02:55:13.264Z,48.40
2019-02-25T02:56:45.520Z,48.40
2019-02-25T02:58:17.764Z,48.20
2019-02-25T02:59:50.062Z,48.50
2019-02-25T03:01:22.279Z,48.50
2019-02-25T03:02:54.578Z,48.60
2019-02-25T03:04:26.881Z,48.70
2019-02-25T03:05:59.065Z,48.80
2019-02-25T03:07:31.320Z,48.80
2019-02-25T03:09:06.458Z,48.80
2019-02-25T03:10:38.762Z,49.00
2019-02-25T03:12:11.029Z,49.10
2019-02-25T03:13:43.152Z,49.30
2019-02-25T03:15:17.507Z,49.50
2019-02-25T03:16:49.878Z,49.50
2019-02-25T03:18:22.117Z,49.50
2019-02-25T03:19:54.521Z,49.40
2019-02-25T03:21:26.633Z,49.50
2019-02-25T03:22:58.915Z,49.50
2019-02-25T03:24:31.235Z,49.40
2019-02-25T03:26:03.561Z,49.50
2019-02-25T03:27:35.769Z,49.20
2019-02-25T03:29:08.114Z,49.30
2019-02-25T03:30:40.415Z,49.30
2019-02-25T03:32:12.782Z,49.40
2019-02-25T03:33:45.125Z,49.40
2019-02-25T03:35:17.490Z,49.50
2019-02-25T03:36:49.752Z,49.60
2019-02-25T03:38:21.984Z,49.60
2019-02-25T03:39:54.220Z,49.70
2019-02-25T03:41:26.527Z,49.70
2019-02-25T03:42:58.702Z,49.80
2019-02-25T03:44:31.021Z,50.30
2019-02-25T03:46:03.381Z,49.60
2019-02-25T03:47:35.639Z,49.60
2019-02-25T03:49:07.926Z,49.60
2019-02-25T03:50:40.119Z,49.50
2019-02-25T03:52:12.282Z,49.40
2019-02-25T03:53:44.509Z,49.30
2019-02-25T03:55:16.975Z,49.20
2019-02-25T03:56:49.255Z,49.20
2019-02-25T03:58:21.509Z,49.10
2019-02-25T03:59:53.905Z,49.10
2019-02-25T04:01:26.230Z,49.10
2019-02-25T04:02:58.496Z,49.10
2019-02-25T04:04:30.829Z,48.60
2019-02-25T04:06:03.115Z,48.60
2019-02-25T04:07:35.621Z,48.80
2019-02-25T04:09:07.851Z,48.80
2019-02-25T04:10:40.129Z,48.90
2019-02-25T04:12:12.433Z,48.70
2019-02-25T04:13:44.671Z,49.00
2019-02-25T04:15:20.287Z,49.30
2019-02-25T04:16:52.429Z,49.90
2019-02-25T04:18:24.677Z,49.20
2019-02-25T04:19:56.982Z,49.10
2019-02-25T04:21:29.270Z,49.10
2019-02-25T04:23:01.507Z,49.20
2019-02-25T04:24:33.752Z,49.10
2019-02-25T04:26:06.050Z,49.10
2019-02-25T04:27:38.344Z,49.10
2019-02-25T04:29:10.581Z,49.20
2019-02-25T04:30:42.943Z,49.90
2019-02-25T04:32:15.209Z,49.40
2019-02-25T04:33:47.374Z,49.10
2019-02-25T04:35:19.683Z,49.40
2019-02-25T04:36:51.992Z,49.50
2019-02-25T04:38:24.071Z,49.30
2019-02-25T04:39:56.330Z,49.30
2019-02-25T04:41:28.472Z,49.40
2019-02-25T04:43:00.743Z,49.50
2019-02-25T04:44:33.080Z,49.50
2019-02-25T04:46:05.355Z,49.40
2019-02-25T04:47:37.601Z,49.20
2019-02-25T04:49:09.896Z,49.50
2019-02-25T04:50:42.176Z,49.30
2019-02-25T04:52:14.462Z,49.30
2019-02-25T04:53:46.733Z,49.20
2019-02-25T04:55:18.867Z,49.00
2019-02-25T04:56:51.144Z,49.20
2019-02-25T04:58:23.454Z,49.10
2019-02-25T04:59:55.590Z,49.20
2019-02-25T05:01:27.841Z,49.30
2019-02-25T05:03:00.062Z,48.90
2019-02-25T05:04:32.256Z,49.10
2019-02-25T05:06:04.562Z,49.20
2019-02-25T05:07:36.816Z,49.20
2019-02-25T05:09:09.085Z,49.20
2019-02-25T05:10:41.350Z,49.30
2019-02-25T05:12:13.476Z,49.50
2019-02-25T05:13:45.641Z,49.70
2019-02-25T05:15:19.303Z,49.60
2019-02-25T05:16:51.511Z,49.70
2019-02-25T05:18:23.885Z,49.80
2019-02-25T05:19:56.070Z,49.80
2019-02-25T05:21:28.381Z,49.80
2019-02-25T05:23:00.516Z,49.70
2019-02-25T05:24:32.818Z,49.90
2019-02-25T05:26:05.067Z,50.00
2019-02-25T05:27:37.338Z,50.10
2019-02-25T05:29:09.477Z,50.20
2019-02-25T05:30:41.796Z,50.30
2019-02-25T05:32:14.081Z,50.40
2019-02-25T05:33:46.379Z,50.80
2019-02-25T05:35:18.540Z,50.70
2019-02-25T05:36:50.681Z,50.70
2019-02-25T05:38:22.903Z,50.50
2019-02-25T05:39:55.235Z,50.50
2019-02-25T05:41:27.360Z,50.50
2019-02-25T05:42:59.555Z,50.70
2019-02-25T05:44:31.712Z,51.40
2019-02-25T05:46:03.925Z,50.70
2019-02-25T05:47:36.165Z,50.70
2019-02-25T05:49:08.567Z,50.70
2019-02-25T05:50:40.897Z,50.80
2019-02-25T05:52:13.111Z,50.90
2019-02-25T05:53:45.405Z,50.90
2019-02-25T05:55:17.648Z,51.10
2019-02-25T05:56:49.905Z,51.40
2019-02-25T05:58:22.273Z,51.40
2019-02-25T05:59:54.588Z,51.20
2019-02-25T06:01:26.852Z,51.30
2019-02-25T06:02:59.044Z,51.20
2019-02-25T06:04:31.340Z,51.40
2019-02-25T06:06:03.668Z,51.40
2019-02-25T06:07:35.922Z,51.50
2019-02-25T06:09:08.167Z,51.80
2019-02-25T06:10:40.493Z,52.20
2019-02-25T06:12:12.851Z,52.40
2019-02-25T06:13:45.146Z,52.70
2019-02-25T06:15:17.515Z,53.00
2019-02-25T06:16:49.620Z,52.90
2019-02-25T06:18:21.878Z,53.30
2019-02-25T06:19:54.179Z,53.80
2019-02-25T06:21:26.690Z,53.70
2019-02-25T06:22:59.025Z,53.80
2019-02-25T06:24:32.907Z,53.90
2019-02-25T06:26:05.209Z,53.80
2019-02-25T06:27:37.472Z,54.10
2019-02-25T06:29:09.809Z,54.10
2019-02-25T06:30:42.045Z,54.10
2019-02-25T06:32:14.384Z,54.30
2019-02-25T06:33:47.558Z,54.30
2019-02-25T06:35:19.938Z,54.40
2019-02-25T06:36:52.223Z,54.50
2019-02-25T06:38:24.522Z,54.80
2019-02-25T06:39:56.686Z,54.50
2019-02-25T06:41:28.929Z,54.70
2019-02-25T06:43:01.177Z,54.80
2019-02-25T06:44:33.431Z,55.00
2019-02-25T06:46:05.693Z,54.70
2019-02-25T06:47:38.009Z,55.50
2019-02-25T06:49:10.386Z,55.40
2019-02-25T06:50:42.618Z,55.00
2019-02-25T06:52:14.901Z,55.20
2019-02-25T06:53:47.164Z,55.60
2019-02-25T06:55:19.288Z,55.70
2019-02-25T06:56:51.529Z,55.70
2019-02-25T06:58:23.818Z,55.70
2019-02-25T06:59:56.068Z,56.00
2019-02-25T07:01:28.289Z,55.90
2019-02-25T07:03:00.546Z,55.90
2019-02-25T07:04:37.839Z,55.80
2019-02-25T07:06:20.319Z,55.90
2019-02-25T07:07:55.748Z,56.00
2019-02-25T07:09:53.368Z,56.20
2019-02-25T07:11:43.660Z,56.30
2019-02-25T07:13:24.566Z,56.40
2019-02-25T07:15:03.354Z,56.40
2019-02-25T07:17:15.588Z,56.20
2019-02-25T07:19:03.286Z,56.90
2019-02-25T07:21:03.792Z,56.40
2019-02-25T07:23:10.657Z,56.20
2019-02-25T07:24:52.814Z,56.40
2019-02-25T07:26:59.897Z,56.30
2019-02-25T07:28:46.656Z,56.20
2019-02-25T07:30:31.805Z,55.90
2019-02-25T07:32:23.409Z,56.00
2019-02-25T07:34:13.336Z,55.80
2019-02-25T07:35:55.214Z,55.80
2019-02-25T07:37:51.649Z,55.50
2019-02-25T07:39:58.803Z,55.80
2019-02-25T07:42:05.673Z,55.90
2019-02-25T07:43:47.080Z,55.70
2019-02-25T07:45:28.647Z,56.10
2019-02-25T07:47:10.400Z,56.50
2019-02-25T07:49:02.335Z,56.10
2019-02-25T07:51:02.819Z,56.00
2019-02-25T07:53:12.705Z,55.90
2019-02-25T07:55:10.368Z,55.40
2019-02-25T07:57:04.977Z,54.80
2019-02-25T07:58:44.478Z,54.70
2019-02-25T08:00:36.270Z,54.30
2019-02-25T08:02:15.433Z,53.80
2019-02-25T08:04:07.246Z,53.30
2019-02-25T08:05:54.973Z,52.90
2019-02-25T08:07:45.325Z,52.30
2019-02-25T08:09:37.111Z,52.40
2019-02-25T08:11:37.539Z,51.80
2019-02-25T08:13:44.699Z,51.40
2019-02-25T08:15:31.678Z,50.70
2019-02-25T08:17:11.245Z,50.20
2019-02-25T08:19:05.609Z,49.60
2019-02-25T08:20:56.006Z,49.20
2019-02-25T08:22:47.833Z,48.20
2019-02-25T08:24:42.680Z,47.60
2019-02-25T08:26:33.183Z,46.20
2019-02-25T08:28:32.564Z,45.10
2019-02-25T08:30:33.799Z,44.80
2019-02-25T08:32:40.725Z,45.20
2019-02-25T08:34:38.448Z,44.10
2019-02-25T08:37:20.342Z,43.80
2019-02-25T08:39:11.101Z,43.60
2019-02-25T08:41:15.682Z,43.00
2019-02-25T08:42:50.417Z,41.90
2019-02-25T08:44:29.241Z,40.80
2019-02-25T08:46:33.073Z,41.10
2019-02-25T08:48:12.359Z,39.80
2019-02-25T08:49:53.415Z,41.40
2019-02-25T08:51:25.693Z,41.10
2019-02-25T08:52:57.940Z,41.90
2019-02-25T08:54:30.205Z,40.40
2019-02-25T08:56:02.486Z,41.80
2019-02-25T08:57:34.753Z,40.50
2019-02-25T08:59:07.222Z,40.70
2019-02-25T09:00:40.579Z,41.80
2019-02-25T09:02:12.853Z,40.70
2019-02-25T09:03:45.135Z,41.30
2019-02-25T09:05:17.394Z,41.10
2019-02-25T09:06:58.750Z,41.60
2019-02-25T09:08:30.889Z,41.30
2019-02-25T09:10:03.436Z,41.50
2019-02-25T09:11:35.759Z,40.60
2019-02-25T09:13:08.022Z,40.80
2019-02-25T09:14:40.265Z,41.40
2019-02-25T09:16:12.515Z,41.20
2019-02-25T09:17:44.265Z,41.00
2019-02-25T09:19:16.542Z,41.40
2019-02-25T09:20:48.968Z,42.20
2019-02-25T09:22:21.247Z,42.00
2019-02-25T09:23:53.422Z,42.50
2019-02-25T09:25:25.748Z,41.70
2019-02-25T09:26:57.905Z,41.30
2019-02-25T09:28:30.069Z,40.90
2019-02-25T09:30:02.452Z,41.40
2019-02-25T09:31:34.769Z,41.00
2019-02-25T09:33:07.063Z,40.60
2019-02-25T09:34:39.323Z,40.30
2019-02-25T09:36:11.574Z,39.70
2019-02-25T09:37:43.853Z,39.50
2019-02-25T09:39:18.066Z,38.70
2019-02-25T09:40:50.313Z,38.60
2019-02-25T09:42:24.293Z,37.70
2019-02-25T09:43:56.413Z,37.80
2019-02-25T09:45:28.575Z,37.20
2019-02-25T09:47:00.881Z,36.70
2019-02-25T09:48:33.170Z,36.40
2019-02-25T09:50:06.547Z,34.90
2019-02-25T09:51:38.825Z,36.50
2019-02-25T09:53:11.098Z,36.60
2019-02-25T09:54:46.067Z,36.50
2019-02-25T09:56:18.392Z,36.10
2019-02-25T09:57:50.698Z,36.00
2019-02-25T09:59:22.984Z,36.20
2019-02-25T10:00:55.097Z,36.40
2019-02-25T10:02:30.221Z,35.80
2019-02-25T10:04:02.462Z,35.30
2019-02-25T10:05:34.721Z,35.40
2019-02-25T10:07:07.023Z,36.20
2019-02-25T10:08:39.304Z,35.80
2019-02-25T10:10:12.440Z,34.80
2019-02-25T10:11:44.699Z,34.80
2019-02-25T10:13:16.959Z,34.80
2019-02-25T10:14:49.665Z,34.80
2019-02-25T10:16:22.404Z,34.30
2019-02-25T10:17:54.630Z,35.00
2019-02-25T10:19:26.785Z,34.70
2019-02-25T10:20:58.991Z,34.90
2019-02-25T10:22:32.804Z,34.80
2019-02-25T10:24:05.075Z,33.70
2019-02-25T10:25:37.208Z,33.40
2019-02-25T10:27:09.491Z,33.00
2019-02-25T10:28:41.778Z,33.60
2019-02-25T10:30:14.011Z,32.40
2019-02-25T10:31:46.295Z,33.50
2019-02-25T10:33:18.547Z,34.00
2019-02-25T10:34:50.803Z,33.90
2019-02-25T10:36:22.997Z,32.80
2019-02-25T10:37:55.350Z,32.70
2019-02-25T10:39:27.631Z,32.90
2019-02-25T10:40:59.924Z,33.40
2019-02-25T10:42:33.466Z,33.70
2019-02-25T10:44:06.879Z,33.10
2019-02-25T10:45:41.162Z,33.00
2019-02-25T10:47:15.626Z,33.00
2019-02-25T10:48:50.731Z,33.60
2019-02-25T10:50:22.909Z,33.80
2019-02-25T10:51:55.207Z,34.10
2019-02-25T10:53:27.542Z,34.50
2019-02-25T10:54:59.808Z,33.40
2019-02-25T10:56:42.240Z,33.30
2019-02-25T10:58:14.444Z,32.50
2019-02-25T10:59:46.691Z,32.50
2019-02-25T11:01:19.979Z,33.30
2019-02-25T11:02:53.562Z,33.50
2019-02-25T11:04:27.137Z,33.40
2019-02-25T11:06:00.810Z,32.50
2019-02-25T11:07:34.929Z,33.30
2019-02-25T11:09:34.862Z,31.50
2019-02-25T11:11:11.609Z,33.10
2019-02-25T11:12:43.895Z,33.50
2019-02-25T11:14:16.194Z,32.50
2019-02-25T11:15:48.600Z,33.10
2019-02-25T11:17:22.412Z,33.50
2019-02-25T11:18:56.561Z,32.80
2019-02-25T11:20:31.745Z,33.00
2019-02-25T11:22:05.557Z,32.40
2019-02-25T11:23:38.679Z,32.90
2019-02-25T11:25:10.914Z,31.90
2019-02-25T11:26:43.341Z,31.80
2019-02-25T11:28:24.847Z,30.70
2019-02-25T11:29:49.821Z,31.80
2019-02-25T11:31:24.551Z,31.70
2019-02-25T11:32:57.951Z,31.60
2019-02-25T11:34:31.605Z,31.50
2019-02-25T11:36:04.609Z,31.20
2019-02-25T11:37:36.865Z,30.90
2019-02-25T11:39:09.610Z,31.60
2019-02-25T11:40:42.045Z,31.80
2019-02-25T11:42:17.673Z,31.00
2019-02-25T11:43:50.494Z,29.70
2019-02-25T11:45:22.748Z,30.60
2019-02-25T11:46:55.739Z,31.40
2019-02-25T11:48:27.955Z,30.90
2019-02-25T11:50:00.308Z,31.10
2019-02-25T11:51:32.786Z,30.80
2019-02-25T11:53:05.215Z,31.80
2019-02-25T11:54:37.537Z,31.60
2019-02-25T11:56:09.805Z,30.70
2019-02-25T11:57:42.122Z,31.50
2019-02-25T11:59:14.456Z,31.50
2019-02-25T12:00:46.731Z,31.40
2019-02-25T12:02:25.177Z,30.80
2019-02-25T12:03:53.258Z,31.60
2019-02-25T12:05:25.587Z,31.30
2019-02-25T12:06:57.855Z,31.30
2019-02-25T12:08:30.156Z,31.60
2019-02-25T12:10:02.727Z,30.50
2019-02-25T12:11:35.029Z,30.90
2019-02-25T12:13:07.317Z,31.30
2019-02-25T12:14:39.622Z,30.00
2019-02-25T12:16:11.930Z,29.80
2019-02-25T12:17:44.324Z,30.20
2019-02-25T12:19:18.118Z,30.20
2019-02-25T12:20:50.741Z,30.20
2019-02-25T12:22:23.035Z,30.60
2019-02-25T12:23:55.346Z,30.00
2019-02-25T12:25:27.633Z,29.90
2019-02-25T12:26:59.928Z,30.20
2019-02-25T12:28:32.197Z,29.90
2019-02-25T12:30:06.892Z,30.40
2019-02-25T12:31:39.144Z,30.00
2019-02-25T12:33:11.297Z,30.10
2019-02-25T12:34:43.400Z,29.80
2019-02-25T12:36:15.714Z,30.50
2019-02-25T12:37:48.113Z,30.00
2019-02-25T12:39:20.665Z,30.00
2019-02-25T12:40:53.170Z,30.10
2019-02-25T12:42:25.343Z,29.90
2019-02-25T12:43:57.607Z,29.50
2019-02-25T12:45:30.165Z,30.70
2019-02-25T12:47:02.451Z,30.60
2019-02-25T12:48:34.759Z,30.10
2019-02-25T12:50:07.960Z,30.00
2019-02-25T12:51:40.322Z,29.70
2019-02-25T12:53:12.576Z,30.30
2019-02-25T12:54:44.866Z,30.20
2019-02-25T12:56:17.111Z,29.90
2019-02-25T12:57:49.343Z,30.70
2019-02-25T12:59:21.647Z,30.50
2019-02-25T13:00:53.902Z,30.10
2019-02-25T13:02:26.195Z,30.20
2019-02-25T13:03:58.436Z,30.00
2019-02-25T13:05:30.742Z,30.00
2019-02-25T13:07:03.065Z,30.40
2019-02-25T13:08:35.364Z,30.40
2019-02-25T13:10:09.274Z,30.30
2019-02-25T13:11:41.614Z,30.10
2019-02-25T13:13:13.984Z,30.30
2019-02-25T13:14:46.147Z,30.60
2019-02-25T13:16:18.398Z,30.60
2019-02-25T13:17:50.697Z,30.20
2019-02-25T13:19:22.932Z,31.10
2019-02-25T13:20:55.205Z,29.80
2019-02-25T13:22:27.480Z,30.00
2019-02-25T13:24:01.906Z,30.70
2019-02-25T13:25:33.852Z,31.40
2019-02-25T13:27:08.009Z,31.50
2019-02-25T13:28:40.237Z,31.50
2019-02-25T13:30:13.517Z,29.80
2019-02-25T13:31:45.762Z,31.00
2019-02-25T13:33:18.095Z,31.70
2019-02-25T13:34:50.456Z,31.90
2019-02-25T13:36:22.809Z,31.60
2019-02-25T13:37:55.201Z,31.10
2019-02-25T13:39:27.543Z,29.90
2019-02-25T13:40:59.896Z,30.60
2019-02-25T13:42:32.343Z,31.70
2019-02-25T13:44:04.693Z,31.90
2019-02-25T13:45:37.111Z,31.80
2019-02-25T13:47:09.369Z,31.90
2019-02-25T13:48:41.755Z,30.50
2019-02-25T13:50:14.275Z,30.30
2019-02-25T13:51:46.654Z,32.40
2019-02-25T13:53:19.001Z,31.10
2019-02-25T13:54:51.425Z,31.30
2019-02-25T13:56:23.862Z,31.40
2019-02-25T13:57:57.667Z,32.70
2019-02-25T13:59:30.397Z,32.70
2019-02-25T14:01:03.473Z,32.40
2019-02-25T14:02:35.851Z,31.80
2019-02-25T14:04:08.261Z,32.80
2019-02-25T14:05:40.615Z,33.00
2019-02-25T14:07:14.281Z,33.00
2019-02-25T14:08:46.662Z,32.50
2019-02-25T14:10:19.404Z,33.50
2019-02-25T14:11:51.802Z,31.90
2019-02-25T14:13:24.167Z,32.80
2019-02-25T14:14:56.531Z,32.60
2019-02-25T14:16:28.939Z,33.40
2019-02-25T14:18:01.295Z,33.10
2019-02-25T14:19:33.712Z,33.50
2019-02-25T14:21:06.102Z,33.70
2019-02-25T14:22:38.515Z,32.70
2019-02-25T14:24:10.886Z,33.40
2019-02-25T14:25:43.231Z,33.80
2019-02-25T14:27:15.455Z,33.20
2019-02-25T14:28:48.712Z,33.30
2019-02-25T14:30:22.024Z,34.30
2019-02-25T14:31:54.436Z,34.90
2019-02-25T14:33:26.861Z,34.20
2019-02-25T14:35:00.532Z,32.90
2019-02-25T14:36:32.938Z,33.60
2019-02-25T14:38:09.657Z,34.10
2019-02-25T14:39:40.896Z,33.50
2019-02-25T14:41:16.144Z,33.50
2019-02-25T14:42:52.026Z,33.70
2019-02-25T14:44:27.115Z,34.50
2019-02-25T14:46:01.095Z,35.10
2019-02-25T14:47:36.820Z,34.60
2019-02-25T14:49:09.753Z,35.30
2019-02-25T14:50:50.576Z,35.10
2019-02-25T14:52:29.271Z,35.10
2019-02-25T14:54:05.978Z,35.20
2019-02-25T14:55:40.677Z,35.30
2019-02-25T14:57:13.104Z,34.90
2019-02-25T14:58:47.670Z,35.50
2019-02-25T15:00:29.017Z,35.00
2019-02-25T15:02:04.045Z,35.40
2019-02-25T15:03:36.754Z,34.40
2019-02-25T15:05:10.521Z,34.30
2019-02-25T15:06:43.567Z,34.70
2019-02-25T15:08:16.072Z,35.40
2019-02-25T15:09:48.534Z,35.60
2019-02-25T15:11:21.051Z,35.40
2019-02-25T15:12:56.542Z,35.50
2019-02-25T15:14:27.832Z,36.00
2019-02-25T15:16:00.356Z,36.40
2019-02-25T15:17:32.909Z,35.70
2019-02-25T15:19:05.441Z,35.70
2019-02-25T15:20:37.845Z,35.90
2019-02-25T15:22:10.440Z,35.70
2019-02-25T15:23:55.409Z,35.60
2019-02-25T15:25:31.180Z,35.30
2019-02-25T15:27:04.371Z,35.50
2019-02-25T15:28:36.865Z,35.40
2019-02-25T15:30:13.570Z,35.00
2019-02-25T15:31:46.309Z,35.50
2019-02-25T15:33:20.276Z,35.40
2019-02-25T15:34:53.354Z,36.10
2019-02-25T15:36:28.968Z,36.60
2019-02-25T15:38:01.553Z,36.60
2019-02-25T15:39:34.048Z,36.40
2019-02-25T15:41:34.275Z,35.20
2019-02-25T15:43:12.580Z,36.20
2019-02-25T15:44:44.545Z,35.90
2019-02-25T15:46:19.587Z,36.40
2019-02-25T15:47:53.035Z,35.80
2019-02-25T15:49:28.063Z,35.60
2019-02-25T15:51:03.447Z,35.30
2019-02-25T15:52:39.898Z,36.10
2019-02-25T15:54:21.800Z,34.90
2019-02-25T15:55:56.948Z,35.20
2019-02-25T15:57:30.623Z,34.30
2019-02-25T15:59:03.039Z,35.70
2019-02-25T16:00:36.689Z,35.50
2019-02-25T16:02:10.590Z,36.30
2019-02-25T16:03:43.451Z,35.90
2019-02-25T16:05:18.764Z,36.00
2019-02-25T16:08:50.404Z,35.20
2019-02-25T16:10:22.935Z,35.70
2019-02-25T16:11:55.263Z,36.60
2019-02-25T16:13:27.846Z,37.10
2019-02-25T16:15:00.311Z,37.40
2019-02-25T16:16:32.721Z,37.50
2019-02-25T16:18:05.123Z,37.30
2019-02-25T16:19:46.430Z,37.80
2019-02-25T16:21:13.246Z,37.50
2019-02-25T16:22:45.689Z,37.40
2019-02-25T16:24:18.714Z,37.40
2019-02-25T16:25:53.155Z,37.20
2019-02-25T16:27:27.290Z,37.00
2019-02-25T16:29:04.039Z,36.90
2019-02-25T16:30:33.848Z,37.30
2019-02-25T16:32:06.138Z,37.80
2019-02-25T16:33:38.850Z,37.80
2019-02-25T16:35:11.269Z,37.70
2019-02-25T16:36:45.207Z,38.10
2019-02-25T16:38:21.099Z,38.60
2019-02-25T16:39:51.799Z,38.60
2019-02-25T16:41:27.338Z,38.80
2019-02-25T16:42:59.761Z,38.70
2019-02-25T16:44:32.389Z,38.50
2019-02-25T16:46:06.441Z,38.90
2019-02-25T16:47:38.856Z,38.80
2019-02-25T16:49:11.238Z,38.70
2019-02-25T16:50:45.846Z,39.10
2019-02-25T16:52:18.413Z,38.80
2019-02-25T16:53:52.376Z,39.10
2019-02-25T16:55:27.353Z,39.10
2019-02-25T16:56:58.887Z,38.80
2019-02-25T16:58:32.057Z,39.40
2019-02-25T17:00:10.146Z,39.60
2019-02-25T17:01:42.525Z,39.20
2019-02-25T17:03:16.127Z,39.30
2019-02-25T17:04:48.536Z,39.20
2019-02-25T17:06:20.936Z,39.50
2019-02-25T17:07:53.280Z,39.60
2019-02-25T17:09:28.343Z,39.70
2019-02-25T17:11:00.662Z,39.90
2019-02-25T17:12:33.040Z,39.90
2019-02-25T17:14:05.355Z,40.00
2019-02-25T17:15:37.781Z,40.00
2019-02-25T17:17:10.062Z,40.00
2019-02-25T17:18:45.853Z,40.10
2019-02-25T17:20:16.468Z,40.00
2019-02-25T17:21:49.073Z,40.30
2019-02-25T17:23:22.907Z,40.40
2019-02-25T17:24:56.485Z,40.30
2019-02-25T17:26:29.831Z,40.10
2019-02-25T17:28:02.212Z,40.30
2019-02-25T17:29:35.880Z,40.40
2019-02-25T17:31:09.091Z,40.60
2019-02-25T17:32:43.963Z,40.50
2019-02-25T17:34:17.000Z,40.30
2019-02-25T17:35:52.115Z,40.40
2019-02-25T17:37:26.628Z,40.70
2019-02-25T17:38:58.957Z,41.00
2019-02-25T17:40:31.373Z,41.00
2019-02-25T17:42:06.319Z,40.90
2019-02-25T17:43:40.684Z,41.10
2019-02-25T17:45:15.003Z,41.10
2019-02-25T17:46:47.371Z,41.10
2019-02-25T17:48:21.236Z,41.20
2019-02-25T17:49:53.775Z,41.30
2019-02-25T17:51:27.041Z,41.40
2019-02-25T17:53:00.928Z,41.50
2019-02-25T17:54:35.527Z,41.50
2019-02-25T17:56:07.779Z,41.60
2019-02-25T17:57:40.062Z,41.60
2019-02-25T17:59:12.421Z,41.60
2019-02-25T18:00:45.144Z,41.60
2019-02-25T18:02:17.536Z,41.80
2019-02-25T18:03:49.960Z,41.60
2019-02-25T18:05:22.311Z,41.80
2019-02-25T18:06:54.692Z,41.80
2019-02-25T18:08:27.935Z,41.90
2019-02-25T18:10:01.696Z,41.80
2019-02-25T18:11:36.842Z,41.70
2019-02-25T18:13:10.886Z,41.80
2019-02-25T18:14:45.161Z,41.70
2019-02-25T18:16:19.013Z,41.90
2019-02-25T18:17:53.065Z,41.90
2019-02-25T18:19:27.096Z,42.00
2019-02-25T18:20:59.691Z,42.10
2019-02-25T18:22:32.595Z,42.20
2019-02-25T18:24:05.394Z,42.40
2019-02-25T18:25:39.758Z,42.50
2019-02-25T18:27:13.090Z,42.50
2019-02-25T18:28:45.890Z,42.40
2019-02-25T18:30:20.284Z,42.60
2019-02-25T18:31:52.860Z,42.60
2019-02-25T18:33:26.878Z,42.70
2019-02-25T18:35:00.529Z,42.30
2019-02-25T18:36:33.287Z,42.50
2019-02-25T18:38:08.952Z,42.50
2019-02-25T18:39:40.129Z,42.50
2019-02-25T18:41:12.930Z,42.50
2019-02-25T18:42:45.432Z,42.60
2019-02-25T18:44:17.685Z,42.70
2019-02-25T18:45:50.082Z,42.90
2019-02-25T18:47:23.458Z,42.70
2019-02-25T18:48:56.555Z,42.80
2019-02-25T18:50:30.768Z,42.80
2019-02-25T18:52:03.450Z,43.30
2019-02-25T18:53:35.848Z,42.70
2019-02-25T18:55:11.171Z,42.70
2019-02-25T18:56:44.632Z,43.00
2019-02-25T18:58:17.416Z,43.00
2019-02-25T18:59:49.622Z,43.00
2019-02-25T19:01:22.010Z,43.10
2019-02-25T19:02:56.201Z,43.20
2019-02-25T19:04:28.769Z,43.30
2019-02-25T19:06:01.205Z,43.30
2019-02-25T19:07:33.881Z,43.10
2019-02-25T19:09:12.260Z,43.30
2019-02-25T19:10:45.640Z,43.30
2019-02-25T19:12:17.657Z,43.30
2019-02-25T19:13:51.674Z,43.50
2019-02-25T19:15:24.267Z,43.50
2019-02-25T19:16:57.692Z,43.70
2019-02-25T19:18:32.103Z,43.50
2019-02-25T19:20:05.705Z,43.40
2019-02-25T19:21:37.949Z,43.30
2019-02-25T19:23:11.752Z,43.70
2019-02-25T19:24:45.048Z,43.50
2019-02-25T19:26:19.702Z,43.70
2019-02-25T19:27:54.348Z,43.80
2019-02-25T19:29:28.165Z,44.00
2019-02-25T19:31:01.146Z,43.80
2019-02-25T19:32:33.523Z,43.70
2019-02-25T19:34:05.808Z,43.70
2019-02-25T19:35:40.641Z,43.80
2019-02-25T19:37:14.368Z,43.90
2019-02-25T19:38:48.512Z,44.10
2019-02-25T19:40:22.551Z,44.20
2019-02-25T19:41:56.359Z,44.80
2019-02-25T19:43:29.085Z,44.20
2019-02-25T19:45:05.297Z,44.30
2019-02-25T19:46:35.612Z,44.40
2019-02-25T19:48:07.959Z,44.40
2019-02-25T19:49:41.305Z,44.50
2019-02-25T19:51:14.378Z,44.50
2019-02-25T19:52:46.819Z,44.50
2019-02-25T19:54:19.093Z,44.60
2019-02-25T19:55:53.665Z,44.80
2019-02-25T19:57:26.233Z,44.80
2019-02-25T19:59:00.771Z,45.00
2019-02-25T20:00:35.782Z,45.00
2019-02-25T20:02:07.982Z,45.30
2019-02-25T20:03:42.484Z,45.60
2019-02-25T20:05:16.552Z,46.00
2019-02-25T20:06:49.456Z,45.80
2019-02-25T20:08:23.066Z,46.30
2019-02-25T20:09:57.762Z,46.20
2019-02-25T20:11:29.536Z,46.00
2019-02-25T20:13:05.732Z,46.20
2019-02-25T20:14:37.326Z,46.30
2019-02-25T20:16:13.383Z,46.20
2019-02-25T20:17:44.634Z,46.70